Casper, WY (82604)

10:04 AM MDT on September 17, 2014 (GMT -0600)
North of Casper, WY | Change Station
CLOSE
Current Station
Personal Weather Station
Location: Bar Nunn, WY
Elevation: 5276 ft
Nearby Weather Stations

Elev 5276 ft 42.91 °N, 106.35 °W | Updated 1 minute ago

Clear
Clear
70.7 °F
Feels Like 77 °F
N
0.0
Wind Variable Wind from North
Gusts 0.0 mph

Today
High -- | Low -- °F
--% Chance of Precip.
Yesterday
High -- | Low -- °F
Precip. -- in
6:47 AM 7:11 PM
Waning Crescent, 35% visible
Pressure 29.90 in
Visibility 10.0 miles
Clouds Few 12000 ft
Heat Index 77 °F
Dew Point 42 °F
Humidity 36%
Rainfall 0.00 in
Snow Depth 0 in , 3 in , 1 in
UV 3 out of 12
Pollen 6.10 out of 12
Air Quality Not available.
Flu Activity Not available.
METAR KCPR 171553Z 21010KT 10SM FEW120 24/03 A3008 RMK AO2 SLP123 T02390028

More Conditions Fewer Conditions

Pressure 29.90 in
Visibility 10.0 miles
Clouds Few 12000 ft
Heat Index 77 °F
Dew Point 42 °F
Humidity 36%
Rainfall 0.00 in
Snow Depth 0 in , 3 in , 1 in
UV 3 out of 12
Pollen 6.10 out of 12
Air Quality Not available.
Flu Activity Not available.
METAR KCPR 171553Z 21010KT 10SM FEW120 24/03 A3008 RMK AO2 SLP123 T02390028

More Conditions Fewer Conditions

10-Day Weather Forecast

Almanac

Astronomy

Sep. 17, 2014 Rise Set
Actual Time 6:47 AM MDT 7:11 PM MDT
Civil Twilight 6:19 AM MDT 7:40 PM MDT
Nautical Twilight 5:45 AM MDT 8:13 PM MDT
Astronomical Twilight 5:11 AM MDT 8:47 PM MDT
Moon 12:43 AM MDT 3:29 PM MDT
Length of Visible Light 13h 20m
Length of Day
12h 24m
Tomorrow will be 2m 52s shorter.
Waning Crescent, 35% of the Moon is Illuminated
Today
Waning Crescent
Sep 24
New
Oct 1
First Quarter
Oct 8
Full
Oct 15
Last Quarter

Today's Extremes

State Highs State Lows

Community

WunderPhotos

Upload Photos

1,754,091 photos uploaded!

Nearby

Snow Depth

Station Depth Elevation
Powder River Pass 0 in 9480 ft
Shell Creek 3 in 9580 ft
Gros Ventre Summit 1 in 8750 ft
Sylvan Lake 0 in 8420 ft
Spring Creek Divide 0 in 9000 ft

Earthquake Activity

City Distance Mag. Time & Date
No recent earthquake activity has been reported nearby.
Minimum magnitude displayed is 2.5.

Coastal Water Temperatures

Place Temperature
No Stations Reporting

Nearby Weather Stations